sensor_id;sensor_type;location;lat;lon;timestamp;P1;durP1;ratioP1;P2;durP2;ratioP2
49876;SDS011;35771;48.978;9.294;2022-12-07T09:25:18;14.88;;;7.47;;
49876;SDS011;35771;48.978;9.294;2022-12-07T09:27:44;15.40;;;7.60;;
49876;SDS011;35771;48.978;9.294;2022-12-07T09:30:11;14.68;;;8.45;;
49876;SDS011;35771;48.978;9.294;2022-12-07T09:32:38;15.20;;;7.25;;
49876;SDS011;35771;48.978;9.294;2022-12-07T09:35:05;16.00;;;7.20;;
49876;SDS011;35771;48.978;9.294;2022-12-07T09:37:32;20.38;;;7.38;;
49876;SDS011;35771;48.978;9.294;2022-12-07T09:40:01;15.75;;;7.10;;
49876;SDS011;35771;48.978;9.294;2022-12-07T09:42:29;16.88;;;6.25;;
49876;SDS011;35771;48.978;9.294;2022-12-07T09:45:00;18.33;;;7.10;;
49876;SDS011;35771;48.978;9.294;2022-12-07T09:47:28;14.20;;;6.43;;
49876;SDS011;35771;48.978;9.294;2022-12-07T09:49:57;11.07;;;5.60;;
49876;SDS011;35771;48.978;9.294;2022-12-07T09:52:29;12.70;;;7.22;;
49876;SDS011;35771;48.978;9.294;2022-12-07T09:54:57;15.60;;;7.05;;
49876;SDS011;35771;48.978;9.294;2022-12-07T09:57:25;11.88;;;6.57;;
49876;SDS011;35771;48.978;9.294;2022-12-07T10:00:00;11.63;;;5.78;;
49876;SDS011;35771;48.978;9.294;2022-12-07T10:02:34;12.73;;;6.13;;
49876;SDS011;35771;48.978;9.294;2022-12-07T10:05:03;10.05;;;5.22;;
49876;SDS011;35771;48.978;9.294;2022-12-07T10:07:31;9.60;;;5.23;;
49876;SDS011;35771;48.978;9.294;2022-12-07T10:09:58;16.02;;;6.00;;
49876;SDS011;35771;48.978;9.294;2022-12-07T10:12:25;12.82;;;5.55;;
49876;SDS011;35771;48.978;9.294;2022-12-07T10:14:58;11.13;;;5.45;;
49876;SDS011;35771;48.978;9.294;2022-12-07T10:17:30;11.70;;;4.78;;
49876;SDS011;35771;48.978;9.294;2022-12-07T10:20:10;9.35;;;4.57;;
49876;SDS011;35771;48.978;9.294;2022-12-07T10:22:52;9.93;;;4.07;;
49876;SDS011;35771;48.978;9.294;2022-12-07T10:25:21;9.10;;;5.22;;
49876;SDS011;35771;48.978;9.294;2022-12-07T10:27:56;8.93;;;4.95;;
49876;SDS011;35771;48.978;9.294;2022-12-07T10:30:25;18.58;;;4.60;;
49876;SDS011;35771;48.978;9.294;2022-12-07T10:32:52;11.00;;;4.70;;
49876;SDS011;35771;48.978;9.294;2022-12-07T10:35:20;9.07;;;4.45;;
49876;SDS011;35771;48.978;9.294;2022-12-07T10:40:24;8.75;;;4.40;;
49876;SDS011;35771;48.978;9.294;2022-12-07T10:45:31;5.70;;;3.55;;
49876;SDS011;35771;48.978;9.294;2022-12-07T10:47:59;11.75;;;4.68;;
49876;SDS011;35771;48.978;9.294;2022-12-07T10:50:38;5.78;;;3.47;;
49876;SDS011;35771;48.978;9.294;2022-12-07T10:53:26;11.02;;;3.85;;
49876;SDS011;35771;48.978;9.294;2022-12-07T10:56:05;7.93;;;4.40;;
49876;SDS011;35771;48.978;9.294;2022-12-07T10:58:51;6.87;;;3.80;;
49876;SDS011;35771;48.978;9.294;2022-12-07T11:01:28;9.32;;;4.07;;
49876;SDS011;35771;48.978;9.294;2022-12-07T11:04:13;12.23;;;4.15;;
49876;SDS011;35771;48.978;9.294;2022-12-07T11:06:47;12.10;;;5.10;;
49876;SDS011;35771;48.978;9.294;2022-12-07T11:09:31;12.18;;;3.72;;
49876;SDS011;35771;48.978;9.294;2022-12-07T11:12:11;8.13;;;4.80;;
49876;SDS011;35771;48.978;9.294;2022-12-07T11:14:48;9.05;;;4.68;;
49876;SDS011;35771;48.978;9.294;2022-12-07T11:17:24;7.63;;;4.25;;
49876;SDS011;35771;48.978;9.294;2022-12-07T11:20:01;8.02;;;4.25;;
49876;SDS011;35771;48.978;9.294;2022-12-07T11:22:33;8.27;;;3.88;;
49876;SDS011;35771;48.978;9.294;2022-12-07T11:25:17;8.77;;;4.57;;
49876;SDS011;35771;48.978;9.294;2022-12-07T11:27:59;7.90;;;4.45;;
49876;SDS011;35771;48.978;9.294;2022-12-07T11:30:36;8.38;;;4.72;;
49876;SDS011;35771;48.978;9.294;2022-12-07T11:33:15;13.40;;;5.03;;
49876;SDS011;35771;48.978;9.294;2022-12-07T11:35:51;7.97;;;4.35;;
49876;SDS011;35771;48.978;9.294;2022-12-07T11:38:26;9.77;;;5.47;;
49876;SDS011;35771;48.978;9.294;2022-12-07T11:41:00;13.55;;;6.28;;
49876;SDS011;35771;48.978;9.294;2022-12-07T11:43:40;9.60;;;4.95;;
49876;SDS011;35771;48.978;9.294;2022-12-07T11:46:16;12.40;;;4.40;;
49876;SDS011;35771;48.978;9.294;2022-12-07T11:48:46;11.80;;;5.80;;
49876;SDS011;35771;48.978;9.294;2022-12-07T11:51:17;11.27;;;6.30;;
49876;SDS011;35771;48.978;9.294;2022-12-07T11:53:46;12.45;;;5.43;;
49876;SDS011;35771;48.978;9.294;2022-12-07T11:56:19;11.57;;;5.15;;
49876;SDS011;35771;48.978;9.294;2022-12-07T11:58:49;10.25;;;5.43;;
49876;SDS011;35771;48.978;9.294;2022-12-07T12:01:29;9.82;;;5.28;;
49876;SDS011;35771;48.978;9.294;2022-12-07T12:04:12;13.70;;;6.32;;
49876;SDS011;35771;48.978;9.294;2022-12-07T12:06:49;9.63;;;5.38;;
49876;SDS011;35771;48.978;9.294;2022-12-07T12:09:17;13.73;;;5.68;;
49876;SDS011;35771;48.978;9.294;2022-12-07T12:11:56;9.20;;;5.20;;
49876;SDS011;35771;48.978;9.294;2022-12-07T12:14:39;10.18;;;4.63;;
49876;SDS011;35771;48.978;9.294;2022-12-07T12:17:21;12.85;;;5.38;;
49876;SDS011;35771;48.978;9.294;2022-12-07T12:20:15;14.48;;;6.93;;
49876;SDS011;35771;48.978;9.294;2022-12-07T12:22:48;10.52;;;5.57;;
49876;SDS011;35771;48.978;9.294;2022-12-07T12:25:20;11.55;;;6.10;;
49876;SDS011;35771;48.978;9.294;2022-12-07T12:27:50;12.48;;;5.80;;
49876;SDS011;35771;48.978;9.294;2022-12-07T12:30:24;11.93;;;5.40;;
49876;SDS011;35771;48.978;9.294;2022-12-07T12:33:01;11.45;;;5.65;;
49876;SDS011;35771;48.978;9.294;2022-12-07T12:35:33;10.35;;;5.53;;
49876;SDS011;35771;48.978;9.294;2022-12-07T12:40:58;12.57;;;6.40;;
49876;SDS011;35771;48.978;9.294;2022-12-07T12:43:41;14.88;;;6.82;;
49876;SDS011;35771;48.978;9.294;2022-12-07T12:55:14;10.73;;;5.85;;
49876;SDS011;35771;48.978;9.294;2022-12-07T12:57:45;12.15;;;5.93;;
49876;SDS011;35771;48.978;9.294;2022-12-07T13:02:47;9.77;;;5.88;;
49876;SDS011;35771;48.978;9.294;2022-12-07T13:05:16;10.82;;;5.95;;
49876;SDS011;35771;48.978;9.294;2022-12-07T13:07:53;10.52;;;5.63;;
49876;SDS011;35771;48.978;9.294;2022-12-07T13:10:36;13.32;;;6.18;;
49876;SDS011;35771;48.978;9.294;2022-12-07T13:18:59;9.98;;;5.13;;
49876;SDS011;35771;48.978;9.294;2022-12-07T13:21:42;14.55;;;6.32;;
49876;SDS011;35771;48.978;9.294;2022-12-07T13:24:10;12.63;;;6.65;;
49876;SDS011;35771;48.978;9.294;2022-12-07T13:26:41;11.65;;;5.50;;
49876;SDS011;35771;48.978;9.294;2022-12-07T13:31:37;16.58;;;7.50;;
49876;SDS011;35771;48.978;9.294;2022-12-07T13:36:56;12.02;;;6.97;;
49876;SDS011;35771;48.978;9.294;2022-12-07T13:39:24;11.43;;;6.13;;
49876;SDS011;35771;48.978;9.294;2022-12-07T13:41:54;11.45;;;5.95;;
49876;SDS011;35771;48.978;9.294;2022-12-07T13:44:23;9.30;;;5.50;;
49876;SDS011;35771;48.978;9.294;2022-12-07T13:46:52;11.43;;;6.30;;
49876;SDS011;35771;48.978;9.294;2022-12-07T13:49:26;12.68;;;6.35;;
49876;SDS011;35771;48.978;9.294;2022-12-07T13:51:54;9.32;;;5.72;;
49876;SDS011;35771;48.978;9.294;2022-12-07T13:54:43;13.65;;;6.47;;
49876;SDS011;35771;48.978;9.294;2022-12-07T13:57:11;16.52;;;8.80;;
49876;SDS011;35771;48.978;9.294;2022-12-07T13:59:38;15.20;;;7.68;;
49876;SDS011;35771;48.978;9.294;2022-12-07T14:02:16;16.27;;;8.23;;
49876;SDS011;35771;48.978;9.294;2022-12-07T14:04:45;14.80;;;7.10;;
49876;SDS011;35771;48.978;9.294;2022-12-07T14:07:22;13.18;;;7.07;;
49876;SDS011;35771;48.978;9.294;2022-12-07T14:09:54;14.65;;;8.05;;
49876;SDS011;35771;48.978;9.294;2022-12-07T14:12:24;16.67;;;7.97;;
49876;SDS011;35771;48.978;9.294;2022-12-07T14:14:51;13.50;;;7.27;;
49876;SDS011;35771;48.978;9.294;2022-12-07T14:17:20;16.55;;;6.82;;
49876;SDS011;35771;48.978;9.294;2022-12-07T14:19:49;16.48;;;9.30;;
49876;SDS011;35771;48.978;9.294;2022-12-07T14:22:19;15.07;;;7.17;;
49876;SDS011;35771;48.978;9.294;2022-12-07T14:24:58;15.60;;;7.40;;
49876;SDS011;35771;48.978;9.294;2022-12-07T14:27:48;14.27;;;7.05;;
49876;SDS011;35771;48.978;9.294;2022-12-07T14:30:18;15.02;;;6.32;;
49876;SDS011;35771;48.978;9.294;2022-12-07T14:32:45;13.98;;;7.20;;
49876;SDS011;35771;48.978;9.294;2022-12-07T14:35:16;13.38;;;6.28;;
49876;SDS011;35771;48.978;9.294;2022-12-07T14:37:46;13.10;;;7.00;;
49876;SDS011;35771;48.978;9.294;2022-12-07T14:40:15;17.17;;;6.78;;
49876;SDS011;35771;48.978;9.294;2022-12-07T14:42:43;14.10;;;6.97;;
49876;SDS011;35771;48.978;9.294;2022-12-07T14:45:16;14.63;;;7.32;;
49876;SDS011;35771;48.978;9.294;2022-12-07T14:47:45;14.27;;;7.13;;
49876;SDS011;35771;48.978;9.294;2022-12-07T14:50:12;16.80;;;7.97;;
49876;SDS011;35771;48.978;9.294;2022-12-07T14:52:40;15.18;;;7.15;;
49876;SDS011;35771;48.978;9.294;2022-12-07T14:55:12;17.15;;;7.75;;
49876;SDS011;35771;48.978;9.294;2022-12-07T14:57:40;15.88;;;6.70;;
49876;SDS011;35771;48.978;9.294;2022-12-07T15:00:08;19.10;;;7.70;;
49876;SDS011;35771;48.978;9.294;2022-12-07T15:02:40;15.30;;;6.82;;
49876;SDS011;35771;48.978;9.294;2022-12-07T15:05:07;12.68;;;6.57;;
49876;SDS011;35771;48.978;9.294;2022-12-07T15:07:34;12.55;;;6.00;;
49876;SDS011;35771;48.978;9.294;2022-12-07T15:10:01;14.82;;;6.85;;
49876;SDS011;35771;48.978;9.294;2022-12-07T15:12:28;17.70;;;8.57;;
49876;SDS011;35771;48.978;9.294;2022-12-07T15:14:54;14.63;;;7.78;;
49876;SDS011;35771;48.978;9.294;2022-12-07T15:17:21;15.93;;;7.82;;
49876;SDS011;35771;48.978;9.294;2022-12-07T15:19:49;15.75;;;8.25;;
49876;SDS011;35771;48.978;9.294;2022-12-07T15:22:15;15.90;;;8.35;;
49876;SDS011;35771;48.978;9.294;2022-12-07T15:24:42;16.40;;;7.80;;
49876;SDS011;35771;48.978;9.294;2022-12-07T15:27:08;16.55;;;8.40;;
49876;SDS011;35771;48.978;9.294;2022-12-07T15:29:35;17.30;;;8.13;;
49876;SDS011;35771;48.978;9.294;2022-12-07T15:32:01;16.30;;;7.75;;
49876;SDS011;35771;48.978;9.294;2022-12-07T15:34:28;13.57;;;7.88;;
49876;SDS011;35771;48.978;9.294;2022-12-07T15:36:58;18.42;;;8.45;;
49876;SDS011;35771;48.978;9.294;2022-12-07T15:39:24;19.55;;;8.32;;
49876;SDS011;35771;48.978;9.294;2022-12-07T15:41:51;14.90;;;8.15;;
49876;SDS011;35771;48.978;9.294;2022-12-07T15:44:17;18.33;;;8.48;;
49876;SDS011;35771;48.978;9.294;2022-12-07T15:47:01;19.38;;;8.55;;
49876;SDS011;35771;48.978;9.294;2022-12-07T15:49:29;15.75;;;8.02;;
49876;SDS011;35771;48.978;9.294;2022-12-07T15:51:57;19.90;;;10.07;;
49876;SDS011;35771;48.978;9.294;2022-12-07T15:54:24;17.95;;;8.70;;
49876;SDS011;35771;48.978;9.294;2022-12-07T15:56:52;20.10;;;10.15;;
49876;SDS011;35771;48.978;9.294;2022-12-07T15:59:19;18.73;;;10.65;;
49876;SDS011;35771;48.978;9.294;2022-12-07T16:01:46;22.25;;;10.23;;
49876;SDS011;35771;48.978;9.294;2022-12-07T16:04:13;17.15;;;8.75;;
49876;SDS011;35771;48.978;9.294;2022-12-07T16:06:40;20.73;;;10.35;;
49876;SDS011;35771;48.978;9.294;2022-12-07T16:09:08;24.45;;;10.55;;
49876;SDS011;35771;48.978;9.294;2022-12-07T16:11:34;23.35;;;10.13;;
49876;SDS011;35771;48.978;9.294;2022-12-07T16:14:01;18.92;;;9.23;;
49876;SDS011;35771;48.978;9.294;2022-12-07T16:16:28;21.70;;;9.77;;
49876;SDS011;35771;48.978;9.294;2022-12-07T16:18:55;24.25;;;10.52;;
49876;SDS011;35771;48.978;9.294;2022-12-07T16:21:22;22.17;;;9.77;;
49876;SDS011;35771;48.978;9.294;2022-12-07T16:23:48;24.40;;;10.45;;
49876;SDS011;35771;48.978;9.294;2022-12-07T16:26:17;21.27;;;10.90;;
49876;SDS011;35771;48.978;9.294;2022-12-07T16:28:45;23.90;;;9.70;;
49876;SDS011;35771;48.978;9.294;2022-12-07T16:31:15;28.00;;;11.52;;
49876;SDS011;35771;48.978;9.294;2022-12-07T16:33:43;26.77;;;11.27;;
49876;SDS011;35771;48.978;9.294;2022-12-07T16:36:11;22.60;;;12.02;;
49876;SDS011;35771;48.978;9.294;2022-12-07T16:38:39;24.30;;;11.82;;
49876;SDS011;35771;48.978;9.294;2022-12-07T16:41:06;31.33;;;12.32;;
49876;SDS011;35771;48.978;9.294;2022-12-07T16:43:34;22.50;;;11.73;;
49876;SDS011;35771;48.978;9.294;2022-12-07T16:46:01;25.58;;;11.73;;
49876;SDS011;35771;48.978;9.294;2022-12-07T16:48:29;27.60;;;11.90;;
49876;SDS011;35771;48.978;9.294;2022-12-07T16:50:56;34.72;;;15.20;;
49876;SDS011;35771;48.978;9.294;2022-12-07T16:53:24;34.80;;;15.60;;
49876;SDS011;35771;48.978;9.294;2022-12-07T16:56:05;25.92;;;13.32;;
49876;SDS011;35771;48.978;9.294;2022-12-07T16:58:52;21.45;;;11.13;;
49876;SDS011;35771;48.978;9.294;2022-12-07T17:01:20;21.50;;;11.30;;
49876;SDS011;35771;48.978;9.294;2022-12-07T17:03:47;21.90;;;10.85;;
49876;SDS011;35771;48.978;9.294;2022-12-07T17:06:15;21.60;;;10.13;;
49876;SDS011;35771;48.978;9.294;2022-12-07T17:08:43;22.17;;;10.38;;
49876;SDS011;35771;48.978;9.294;2022-12-07T17:11:10;20.40;;;11.27;;
49876;SDS011;35771;48.978;9.294;2022-12-07T17:13:38;21.98;;;9.75;;
49876;SDS011;35771;48.978;9.294;2022-12-07T17:16:24;18.40;;;8.90;;
49876;SDS011;35771;48.978;9.294;2022-12-07T17:18:51;21.55;;;10.80;;
49876;SDS011;35771;48.978;9.294;2022-12-07T17:21:18;20.98;;;11.32;;
49876;SDS011;35771;48.978;9.294;2022-12-07T17:23:45;21.95;;;11.35;;
49876;SDS011;35771;48.978;9.294;2022-12-07T17:26:12;22.08;;;10.18;;
49876;SDS011;35771;48.978;9.294;2022-12-07T17:28:40;21.92;;;11.82;;
49876;SDS011;35771;48.978;9.294;2022-12-07T17:31:08;21.80;;;10.45;;
49876;SDS011;35771;48.978;9.294;2022-12-07T17:33:37;19.92;;;10.25;;
49876;SDS011;35771;48.978;9.294;2022-12-07T17:36:08;22.00;;;10.20;;
49876;SDS011;35771;48.978;9.294;2022-12-07T17:38:36;22.80;;;10.48;;
49876;SDS011;35771;48.978;9.294;2022-12-07T17:41:07;21.35;;;10.15;;
49876;SDS011;35771;48.978;9.294;2022-12-07T17:43:35;18.42;;;9.20;;
49876;SDS011;35771;48.978;9.294;2022-12-07T17:46:05;22.33;;;9.45;;
49876;SDS011;35771;48.978;9.294;2022-12-07T17:48:33;23.58;;;9.65;;
49876;SDS011;35771;48.978;9.294;2022-12-07T17:51:02;21.27;;;10.02;;
49876;SDS011;35771;48.978;9.294;2022-12-07T17:53:47;20.67;;;10.27;;
49876;SDS011;35771;48.978;9.294;2022-12-07T17:56:14;25.35;;;11.73;;
49876;SDS011;35771;48.978;9.294;2022-12-07T17:58:41;20.60;;;10.70;;
49876;SDS011;35771;48.978;9.294;2022-12-07T18:01:37;19.13;;;10.07;;
49876;SDS011;35771;48.978;9.294;2022-12-07T18:04:04;24.33;;;11.13;;
49876;SDS011;35771;48.978;9.294;2022-12-07T18:06:32;25.55;;;12.25;;
49876;SDS011;35771;48.978;9.294;2022-12-07T18:09:00;18.77;;;9.82;;
49876;SDS011;35771;48.978;9.294;2022-12-07T18:11:27;21.55;;;10.63;;
49876;SDS011;35771;48.978;9.294;2022-12-07T18:13:54;20.55;;;9.70;;
49876;SDS011;35771;48.978;9.294;2022-12-07T18:16:23;17.63;;;9.23;;
49876;SDS011;35771;48.978;9.294;2022-12-07T18:18:53;20.08;;;9.75;;
49876;SDS011;35771;48.978;9.294;2022-12-07T18:21:22;20.67;;;10.13;;
49876;SDS011;35771;48.978;9.294;2022-12-07T18:23:53;21.05;;;10.63;;
49876;SDS011;35771;48.978;9.294;2022-12-07T18:28:49;20.58;;;9.85;;
49876;SDS011;35771;48.978;9.294;2022-12-07T18:31:16;19.38;;;10.65;;
49876;SDS011;35771;48.978;9.294;2022-12-07T18:33:43;22.23;;;9.77;;
49876;SDS011;35771;48.978;9.294;2022-12-07T18:36:11;19.45;;;10.18;;
49876;SDS011;35771;48.978;9.294;2022-12-07T18:38:38;15.23;;;8.60;;
49876;SDS011;35771;48.978;9.294;2022-12-07T18:41:07;18.35;;;9.20;;
49876;SDS011;35771;48.978;9.294;2022-12-07T18:43:34;17.77;;;8.90;;
49876;SDS011;35771;48.978;9.294;2022-12-07T18:46:00;19.40;;;8.95;;
49876;SDS011;35771;48.978;9.294;2022-12-07T18:48:28;19.38;;;10.95;;
49876;SDS011;35771;48.978;9.294;2022-12-07T18:50:58;17.00;;;9.35;;
49876;SDS011;35771;48.978;9.294;2022-12-07T18:53:26;17.48;;;9.20;;
49876;SDS011;35771;48.978;9.294;2022-12-07T18:55:59;20.13;;;10.23;;
49876;SDS011;35771;48.978;9.294;2022-12-07T18:58:27;18.08;;;8.45;;
49876;SDS011;35771;48.978;9.294;2022-12-07T19:00:54;16.80;;;8.90;;
49876;SDS011;35771;48.978;9.294;2022-12-07T19:03:20;20.10;;;9.80;;
49876;SDS011;35771;48.978;9.294;2022-12-07T19:05:47;21.42;;;9.43;;
49876;SDS011;35771;48.978;9.294;2022-12-07T19:08:14;19.13;;;9.48;;
49876;SDS011;35771;48.978;9.294;2022-12-07T19:10:41;17.10;;;9.23;;
49876;SDS011;35771;48.978;9.294;2022-12-07T19:13:07;16.85;;;8.88;;
49876;SDS011;35771;48.978;9.294;2022-12-07T19:15:36;16.98;;;9.70;;
49876;SDS011;35771;48.978;9.294;2022-12-07T19:18:04;19.45;;;9.85;;
49876;SDS011;35771;48.978;9.294;2022-12-07T19:20:31;19.30;;;9.18;;
49876;SDS011;35771;48.978;9.294;2022-12-07T19:22:58;16.38;;;9.63;;
49876;SDS011;35771;48.978;9.294;2022-12-07T19:25:25;21.00;;;9.27;;
49876;SDS011;35771;48.978;9.294;2022-12-07T19:27:51;13.27;;;8.23;;
49876;SDS011;35771;48.978;9.294;2022-12-07T19:30:18;17.17;;;9.02;;
49876;SDS011;35771;48.978;9.294;2022-12-07T19:32:46;17.83;;;8.50;;
49876;SDS011;35771;48.978;9.294;2022-12-07T19:35:12;17.45;;;9.65;;
49876;SDS011;35771;48.978;9.294;2022-12-07T19:37:39;18.00;;;9.18;;
49876;SDS011;35771;48.978;9.294;2022-12-07T19:40:06;19.77;;;9.57;;
49876;SDS011;35771;48.978;9.294;2022-12-07T19:42:34;17.52;;;9.00;;
49876;SDS011;35771;48.978;9.294;2022-12-07T19:45:00;18.77;;;8.88;;
49876;SDS011;35771;48.978;9.294;2022-12-07T19:47:27;15.80;;;9.10;;
49876;SDS011;35771;48.978;9.294;2022-12-07T19:49:55;14.90;;;8.73;;
49876;SDS011;35771;48.978;9.294;2022-12-07T19:52:21;16.83;;;9.10;;
49876;SDS011;35771;48.978;9.294;2022-12-07T19:54:48;19.10;;;8.05;;
49876;SDS011;35771;48.978;9.294;2022-12-07T19:57:14;15.52;;;8.55;;
49876;SDS011;35771;48.978;9.294;2022-12-07T19:59:42;17.45;;;8.88;;
49876;SDS011;35771;48.978;9.294;2022-12-07T20:02:11;16.25;;;7.72;;
49876;SDS011;35771;48.978;9.294;2022-12-07T20:04:38;13.15;;;7.70;;
49876;SDS011;35771;48.978;9.294;2022-12-07T20:07:06;12.88;;;7.05;;
49876;SDS011;35771;48.978;9.294;2022-12-07T20:09:33;15.27;;;7.90;;
49876;SDS011;35771;48.978;9.294;2022-12-07T20:12:00;12.43;;;7.22;;
49876;SDS011;35771;48.978;9.294;2022-12-07T20:14:44;15.00;;;7.60;;
49876;SDS011;35771;48.978;9.294;2022-12-07T20:17:10;18.30;;;9.10;;
49876;SDS011;35771;48.978;9.294;2022-12-07T20:19:37;14.63;;;7.50;;
49876;SDS011;35771;48.978;9.294;2022-12-07T20:22:05;14.80;;;7.97;;
49876;SDS011;35771;48.978;9.294;2022-12-07T20:24:32;16.67;;;8.52;;
49876;SDS011;35771;48.978;9.294;2022-12-07T20:27:00;13.57;;;7.93;;
49876;SDS011;35771;48.978;9.294;2022-12-07T20:29:27;17.23;;;8.82;;
49876;SDS011;35771;48.978;9.294;2022-12-07T20:31:54;14.70;;;8.05;;
49876;SDS011;35771;48.978;9.294;2022-12-07T20:34:23;14.30;;;8.40;;
49876;SDS011;35771;48.978;9.294;2022-12-07T20:36:50;17.58;;;7.55;;
49876;SDS011;35771;48.978;9.294;2022-12-07T20:39:18;18.27;;;8.48;;
49876;SDS011;35771;48.978;9.294;2022-12-07T20:44:32;15.43;;;7.40;;
49876;SDS011;35771;48.978;9.294;2022-12-07T20:46:59;16.00;;;8.50;;
49876;SDS011;35771;48.978;9.294;2022-12-07T20:49:25;21.23;;;9.18;;
49876;SDS011;35771;48.978;9.294;2022-12-07T20:51:52;15.55;;;8.38;;
49876;SDS011;35771;48.978;9.294;2022-12-07T20:54:20;16.30;;;8.02;;
49876;SDS011;35771;48.978;9.294;2022-12-07T20:56:46;16.88;;;9.25;;
49876;SDS011;35771;48.978;9.294;2022-12-07T20:59:14;14.57;;;8.57;;
49876;SDS011;35771;48.978;9.294;2022-12-07T21:01:41;20.92;;;8.07;;
49876;SDS011;35771;48.978;9.294;2022-12-07T21:04:09;15.05;;;7.72;;
49876;SDS011;35771;48.978;9.294;2022-12-07T21:06:36;19.58;;;9.02;;
49876;SDS011;35771;48.978;9.294;2022-12-07T21:09:03;17.13;;;8.40;;
49876;SDS011;35771;48.978;9.294;2022-12-07T21:11:31;20.65;;;10.85;;
49876;SDS011;35771;48.978;9.294;2022-12-07T21:13:58;20.10;;;9.18;;
49876;SDS011;35771;48.978;9.294;2022-12-07T21:16:25;14.65;;;8.55;;
49876;SDS011;35771;48.978;9.294;2022-12-07T21:18:53;16.33;;;7.93;;
49876;SDS011;35771;48.978;9.294;2022-12-07T21:21:21;18.67;;;8.63;;
49876;SDS011;35771;48.978;9.294;2022-12-07T21:23:48;15.60;;;7.90;;
49876;SDS011;35771;48.978;9.294;2022-12-07T21:26:17;16.58;;;8.05;;
49876;SDS011;35771;48.978;9.294;2022-12-07T21:28:47;18.58;;;8.82;;
49876;SDS011;35771;48.978;9.294;2022-12-07T21:31:15;17.02;;;8.63;;
49876;SDS011;35771;48.978;9.294;2022-12-07T21:33:42;18.02;;;9.35;;
49876;SDS011;35771;48.978;9.294;2022-12-07T21:36:09;17.25;;;9.85;;
49876;SDS011;35771;48.978;9.294;2022-12-07T21:38:37;14.57;;;7.95;;
49876;SDS011;35771;48.978;9.294;2022-12-07T21:41:09;17.60;;;8.45;;
49876;SDS011;35771;48.978;9.294;2022-12-07T21:43:37;18.25;;;7.97;;
49876;SDS011;35771;48.978;9.294;2022-12-07T21:46:06;13.63;;;7.70;;
49876;SDS011;35771;48.978;9.294;2022-12-07T21:48:32;13.60;;;7.82;;
49876;SDS011;35771;48.978;9.294;2022-12-07T21:51:03;17.60;;;8.20;;
49876;SDS011;35771;48.978;9.294;2022-12-07T21:53:30;16.17;;;8.32;;
49876;SDS011;35771;48.978;9.294;2022-12-07T21:55:57;16.63;;;8.57;;
49876;SDS011;35771;48.978;9.294;2022-12-07T21:58:24;16.08;;;8.55;;
49876;SDS011;35771;48.978;9.294;2022-12-07T22:00:53;14.15;;;7.45;;
49876;SDS011;35771;48.978;9.294;2022-12-07T22:03:22;12.00;;;6.80;;
49876;SDS011;35771;48.978;9.294;2022-12-07T22:05:48;13.77;;;7.55;;
49876;SDS011;35771;48.978;9.294;2022-12-07T22:08:16;14.02;;;7.78;;
49876;SDS011;35771;48.978;9.294;2022-12-07T22:10:43;12.60;;;6.95;;
49876;SDS011;35771;48.978;9.294;2022-12-07T22:13:09;13.95;;;7.65;;
49876;SDS011;35771;48.978;9.294;2022-12-07T22:15:36;15.65;;;7.88;;
49876;SDS011;35771;48.978;9.294;2022-12-07T22:18:05;13.38;;;6.45;;
49876;SDS011;35771;48.978;9.294;2022-12-07T22:20:33;16.17;;;7.75;;
49876;SDS011;35771;48.978;9.294;2022-12-07T22:22:59;13.82;;;7.80;;
49876;SDS011;35771;48.978;9.294;2022-12-07T22:25:26;13.75;;;7.32;;
49876;SDS011;35771;48.978;9.294;2022-12-07T22:27:53;13.35;;;6.47;;
49876;SDS011;35771;48.978;9.294;2022-12-07T22:30:19;13.63;;;7.57;;
49876;SDS011;35771;48.978;9.294;2022-12-07T22:32:46;11.93;;;6.85;;
49876;SDS011;35771;48.978;9.294;2022-12-07T22:35:12;15.23;;;7.55;;
49876;SDS011;35771;48.978;9.294;2022-12-07T22:37:40;17.73;;;7.95;;
49876;SDS011;35771;48.978;9.294;2022-12-07T22:40:07;15.32;;;8.50;;
49876;SDS011;35771;48.978;9.294;2022-12-07T22:42:34;15.23;;;7.47;;
49876;SDS011;35771;48.978;9.294;2022-12-07T22:45:01;17.67;;;7.85;;
49876;SDS011;35771;48.978;9.294;2022-12-07T22:47:28;16.13;;;8.73;;
49876;SDS011;35771;48.978;9.294;2022-12-07T22:49:54;14.38;;;7.60;;
49876;SDS011;35771;48.978;9.294;2022-12-07T22:52:21;15.80;;;8.07;;
49876;SDS011;35771;48.978;9.294;2022-12-07T22:54:49;15.80;;;8.35;;
49876;SDS011;35771;48.978;9.294;2022-12-07T22:57:15;16.65;;;8.60;;
49876;SDS011;35771;48.978;9.294;2022-12-07T22:59:42;13.35;;;7.13;;
49876;SDS011;35771;48.978;9.294;2022-12-07T23:02:09;12.98;;;7.25;;
49876;SDS011;35771;48.978;9.294;2022-12-07T23:04:36;16.23;;;7.72;;
49876;SDS011;35771;48.978;9.294;2022-12-07T23:07:03;20.23;;;8.23;;
49876;SDS011;35771;48.978;9.294;2022-12-07T23:09:29;15.00;;;7.53;;
49876;SDS011;35771;48.978;9.294;2022-12-07T23:11:57;12.80;;;6.40;;
49876;SDS011;35771;48.978;9.294;2022-12-07T23:14:41;13.68;;;7.57;;
49876;SDS011;35771;48.978;9.294;2022-12-07T23:17:08;10.10;;;5.78;;
49876;SDS011;35771;48.978;9.294;2022-12-07T23:19:34;12.77;;;6.47;;
49876;SDS011;35771;48.978;9.294;2022-12-07T23:22:01;12.40;;;6.70;;
49876;SDS011;35771;48.978;9.294;2022-12-07T23:24:28;13.88;;;7.10;;
49876;SDS011;35771;48.978;9.294;2022-12-07T23:26:54;14.57;;;7.38;;
49876;SDS011;35771;48.978;9.294;2022-12-07T23:29:23;13.82;;;6.78;;
49876;SDS011;35771;48.978;9.294;2022-12-07T23:31:49;12.60;;;6.15;;
49876;SDS011;35771;48.978;9.294;2022-12-07T23:34:16;16.30;;;6.63;;
49876;SDS011;35771;48.978;9.294;2022-12-07T23:36:43;17.85;;;8.07;;
49876;SDS011;35771;48.978;9.294;2022-12-07T23:39:09;18.08;;;8.00;;
49876;SDS011;35771;48.978;9.294;2022-12-07T23:41:36;16.17;;;8.13;;
49876;SDS011;35771;48.978;9.294;2022-12-07T23:44:03;20.55;;;8.65;;
49876;SDS011;35771;48.978;9.294;2022-12-07T23:46:32;15.30;;;7.72;;
49876;SDS011;35771;48.978;9.294;2022-12-07T23:48:59;16.55;;;7.35;;
49876;SDS011;35771;48.978;9.294;2022-12-07T23:51:26;15.80;;;7.80;;
49876;SDS011;35771;48.978;9.294;2022-12-07T23:53:53;14.50;;;7.15;;
49876;SDS011;35771;48.978;9.294;2022-12-07T23:56:21;16.58;;;6.88;;
49876;SDS011;35771;48.978;9.294;2022-12-07T23:58:49;14.35;;;7.55;;
